Time;durP1;ratioP1;P1;durP2;ratioP2;P2;SDS_P1;SDS_P2;PMS_P1;PMS_P2;Temp;Humidity;BMP_temperature;BMP_pressure;BME280_temperature;BME280_humidity;BME280_pressure;Samples;Min_cycle;Max_cycle;Signal;HPM_P1;HPM_P2
2021/08/11 00:00:12;;;;;;;8.27;4.93;;;;;;;15.05;81.14;101921.13;5051263;28;20074;-60
2021/08/11 00:02:38;;;;;;;10.80;5.32;;;;;;;15.03;81.05;101920.34;5051926;28;20063;-62
2021/08/11 00:05:04;;;;;;;9.27;4.88;;;;;;;14.99;80.48;101924.09;5051835;28;20025;-63
2021/08/11 00:07:29;;;;;;;7.93;5.00;;;;;;;14.87;81.01;101921.06;5050987;28;20083;-62
2021/08/11 00:09:55;;;;;;;8.80;4.80;;;;;;;14.80;81.03;101922.25;5051271;28;20387;-61
2021/08/11 00:12:20;;;;;;;11.90;5.05;;;;;;;14.81;81.47;101932.00;5051914;28;20147;-62
2021/08/11 00:14:46;;;;;;;9.02;4.90;;;;;;;14.82;80.84;101931.06;5051620;28;20033;-62
2021/08/11 00:17:11;;;;;;;12.52;5.40;;;;;;;14.80;81.27;101924.91;5052003;28;20036;-63
2021/08/11 00:19:38;;;;;;;12.77;5.53;;;;;;;14.81;80.89;101932.00;5051293;28;20029;-62
2021/08/11 00:22:03;;;;;;;8.85;4.90;;;;;;;14.79;80.52;101928.50;5047964;28;20025;-63
2021/08/11 00:24:29;;;;;;;10.52;4.88;;;;;;;14.74;80.20;101923.41;5052109;28;20596;-62
2021/08/11 00:26:54;;;;;;;8.48;4.78;;;;;;;14.73;80.00;101916.34;5051772;28;20443;-63
2021/08/11 00:29:19;;;;;;;12.30;4.90;;;;;;;14.69;79.90;101919.19;5051614;28;20028;-62
2021/08/11 00:31:45;;;;;;;9.35;4.95;;;;;;;14.60;80.14;101917.78;5050065;28;20025;-62
2021/08/11 00:34:10;;;;;;;10.05;4.97;;;;;;;14.54;80.93;101920.72;5051540;28;20079;-62
2021/08/11 00:36:35;;;;;;;10.02;4.95;;;;;;;14.53;81.10;101921.66;5051586;28;20060;-63
2021/08/11 00:39:01;;;;;;;11.38;4.78;;;;;;;14.51;81.05;101923.53;5051217;28;20056;-62
2021/08/11 00:41:27;;;;;;;9.98;5.10;;;;;;;14.46;82.03;101913.06;5051301;28;20029;-62
2021/08/11 00:43:53;;;;;;;11.32;5.80;;;;;;;14.46;81.99;101920.19;5042979;28;20087;-61
2021/08/11 00:46:18;;;;;;;10.50;4.97;;;;;;;14.45;82.33;101915.78;5031122;28;20037;-63
2021/08/11 00:48:45;;;;;;;8.88;5.00;;;;;;;14.49;82.52;101914.72;5031700;28;20034;-62
2021/08/11 00:51:10;;;;;;;9.05;5.10;;;;;;;14.55;82.69;101911.78;5031382;28;20095;-63
2021/08/11 00:53:38;;;;;;;10.07;5.05;;;;;;;14.62;82.34;101915.06;5048808;28;20139;-63
2021/08/11 00:56:04;;;;;;;10.13;5.38;;;;;;;14.65;82.14;101918.47;5051359;28;20098;-61
2021/08/11 00:58:31;;;;;;;8.82;5.32;;;;;;;14.66;82.08;101920.22;5051686;28;20037;-63
2021/08/11 01:00:59;;;;;;;12.32;5.90;;;;;;;14.67;82.36;101927.28;5051581;28;20021;-62
2021/08/11 01:03:25;;;;;;;12.00;5.90;;;;;;;14.67;82.50;101921.09;5050594;28;20479;-62
2021/08/11 01:05:52;;;;;;;10.88;5.55;;;;;;;14.67;83.21;101915.75;5050417;28;20037;-62
2021/08/11 01:08:21;;;;;;;10.00;5.80;;;;;;;14.69;83.16;101922.75;5050405;28;20182;-62
2021/08/11 01:10:50;;;;;;;13.32;6.18;;;;;;;14.69;82.95;101917.41;5050872;28;20037;-62
2021/08/11 01:13:16;;;;;;;11.90;5.82;;;;;;;14.66;83.36;101919.34;5050411;28;20039;-62
2021/08/11 01:15:47;;;;;;;13.02;6.43;;;;;;;14.64;83.46;101921.19;5050753;28;20341;-62
2021/08/11 01:18:15;;;;;;;13.00;5.93;;;;;;;14.63;83.76;101919.44;5050997;28;20458;-61
2021/08/11 01:20:50;;;;;;;12.00;6.50;;;;;;;14.59;83.92;101924.03;5050636;28;20063;-62
2021/08/11 01:23:18;;;;;;;11.32;7.18;;;;;;;14.56;84.05;101909.03;5050633;28;20036;-62
2021/08/11 01:25:46;;;;;;;11.85;6.75;;;;;;;14.56;84.60;101911.72;5050135;28;20017;-64
2021/08/11 01:28:33;;;;;;;13.48;7.95;;;;;;;14.57;85.68;101907.25;5050823;28;20471;-61
2021/08/11 01:31:07;;;;;;;15.13;7.40;;;;;;;14.59;85.43;101910.72;5050903;28;20028;-63
2021/08/11 01:34:15;;;;;;;18.45;7.88;;;;;;;14.58;85.38;101909.84;5053759;28;20036;-61
2021/08/11 01:36:55;;;;;;;14.90;7.53;;;;;;;14.56;85.14;101917.03;5054086;28;20051;-61
2021/08/11 01:39:37;;;;;;;15.40;7.65;;;;;;;14.54;85.59;101916.25;5054063;28;20021;-62
2021/08/11 01:42:17;;;;;;;14.45;8.40;;;;;;;14.52;86.07;101918.13;5054011;28;20021;-62
2021/08/11 01:44:53;;;;;;;17.63;8.50;;;;;;;14.52;85.90;101920.78;5054317;28;20021;-62
2021/08/11 01:47:21;;;;;;;15.95;9.27;;;;;;;14.53;86.15;101919.00;5054283;28;20112;-63
2021/08/11 01:49:49;;;;;;;15.20;7.97;;;;;;;14.53;85.79;101927.00;5054598;28;20021;-63
2021/08/11 01:52:15;;;;;;;14.55;8.65;;;;;;;14.52;86.26;101914.59;5054455;28;20104;-63
2021/08/11 01:54:43;;;;;;;16.48;8.50;;;;;;;14.50;86.45;101917.34;5053733;28;20120;-63
2021/08/11 01:57:11;;;;;;;16.02;8.98;;;;;;;14.50;86.77;101908.47;5054100;28;20053;-62
2021/08/11 01:59:38;;;;;;;13.18;8.20;;;;;;;14.50;86.77;101924.44;5054330;28;20033;-61
2021/08/11 02:02:05;;;;;;;17.77;8.73;;;;;;;14.51;86.82;101926.19;5035839;28;20021;-62
2021/08/11 02:04:31;;;;;;;17.65;9.13;;;;;;;14.50;87.01;101921.78;5043467;28;20113;-62
2021/08/11 02:06:57;;;;;;;22.95;10.68;;;;;;;14.49;87.20;101918.28;5054004;28;20070;-62
2021/08/11 02:09:22;;;;;;;17.45;10.93;;;;;;;14.49;87.42;101925.38;5053695;28;20364;-62
2021/08/11 02:11:48;;;;;;;22.85;10.18;;;;;;;14.49;87.42;101928.03;5053464;28;20036;-64
2021/08/11 02:14:13;;;;;;;18.23;9.60;;;;;;;14.50;87.55;101921.78;5052552;28;20025;-61
2021/08/11 02:16:40;;;;;;;15.55;9.75;;;;;;;14.51;87.18;101924.38;5053365;28;20214;-62
2021/08/11 02:19:05;;;;;;;20.90;9.77;;;;;;;14.51;87.70;101915.53;5053991;28;20039;-61
2021/08/11 02:21:31;;;;;;;20.20;9.35;;;;;;;14.53;87.70;101914.53;5052925;28;20025;-62
2021/08/11 02:23:56;;;;;;;17.08;10.50;;;;;;;14.55;87.62;101914.44;5053085;28;20036;-62
2021/08/11 02:26:48;;;;;;;17.08;9.50;;;;;;;14.53;87.88;101919.00;5052936;28;20411;-62
2021/08/11 02:29:28;;;;;;;18.55;9.18;;;;;;;14.53;87.89;101916.34;5053813;28;20036;-62
2021/08/11 02:32:23;;;;;;;17.55;10.35;;;;;;;14.53;88.14;101914.53;5053523;28;20444;-62
2021/08/11 02:35:00;;;;;;;17.35;9.55;;;;;;;14.54;87.94;101913.59;5052402;28;20502;-63
2021/08/11 02:37:35;;;;;;;18.42;9.77;;;;;;;14.54;88.05;101902.94;5033689;28;20181;-63
2021/08/11 02:40:10;;;;;;;16.52;9.45;;;;;;;14.53;88.11;101908.34;5033954;28;20109;-63
2021/08/11 02:42:41;;;;;;;20.10;10.48;;;;;;;14.51;88.36;101903.06;5032817;28;20109;-62
2021/08/11 02:45:15;;;;;;;21.27;10.23;;;;;;;14.52;88.57;101911.94;5044057;28;20029;-63
2021/08/11 02:47:42;;;;;;;21.50;10.27;;;;;;;14.52;88.58;101910.13;5052490;28;20541;-61
2021/08/11 02:50:09;;;;;;;15.73;9.18;;;;;;;14.55;88.38;101912.66;5053494;28;20530;-62
2021/08/11 02:52:37;;;;;;;19.90;9.98;;;;;;;14.55;88.39;101915.34;5052581;28;20036;-61
2021/08/11 02:55:02;;;;;;;18.65;10.43;;;;;;;14.53;88.80;101909.19;5052613;28;20108;-60
2021/08/11 02:57:29;;;;;;;21.90;10.68;;;;;;;14.56;88.65;101911.72;5052187;28;20033;-61
2021/08/11 02:59:55;;;;;;;20.83;10.05;;;;;;;14.57;88.51;101909.94;5053132;28;20043;-62
2021/08/11 03:02:21;;;;;;;18.45;9.48;;;;;;;14.58;88.66;101919.66;5033450;28;20033;-62
2021/08/11 03:04:47;;;;;;;17.95;9.45;;;;;;;14.56;88.77;101902.88;5053009;28;20107;-63
2021/08/11 03:07:12;;;;;;;19.40;9.13;;;;;;;14.55;88.67;101904.69;5051837;28;20128;-62
2021/08/11 03:09:38;;;;;;;16.85;8.50;;;;;;;14.56;88.75;101905.53;5051459;28;20383;-61
2021/08/11 03:12:07;;;;;;;17.00;9.05;;;;;;;14.51;88.45;101900.38;5052953;28;20094;-63
2021/08/11 03:14:33;;;;;;;16.50;10.02;;;;;;;14.46;88.41;101902.41;5052694;28;20033;-63
2021/08/11 03:16:59;;;;;;;21.52;10.70;;;;;;;14.40;88.76;101902.69;5051861;28;20436;-62
2021/08/11 03:19:25;;;;;;;17.33;8.90;;;;;;;14.38;88.79;101907.22;5052253;28;20029;-62
2021/08/11 03:21:50;;;;;;;23.45;10.43;;;;;;;14.38;89.24;101913.38;5051888;28;20047;-62
2021/08/11 03:24:17;;;;;;;18.42;9.27;;;;;;;14.40;89.53;101910.69;5053072;28;20119;-62
2021/08/11 03:26:43;;;;;;;19.27;10.32;;;;;;;14.42;89.37;101903.47;5051100;28;20100;-61
2021/08/11 03:29:08;;;;;;;19.08;10.10;;;;;;;14.45;89.36;101905.13;5050976;28;20435;-61
2021/08/11 03:31:33;;;;;;;21.10;10.75;;;;;;;14.46;89.40;101918.38;5051702;28;20046;-62
2021/08/11 03:33:59;;;;;;;15.30;9.43;;;;;;;14.44;89.51;101914.94;5052229;28;20033;-62
2021/08/11 03:36:25;;;;;;;19.67;10.02;;;;;;;14.47;89.40;101916.59;5051871;28;20017;-62
2021/08/11 03:38:50;;;;;;;20.38;10.10;;;;;;;14.49;89.16;101926.25;5051200;28;20033;-62
2021/08/11 03:41:15;;;;;;;21.23;10.88;;;;;;;14.49;89.41;101928.94;5051717;28;20048;-61
2021/08/11 03:43:41;;;;;;;22.48;10.32;;;;;;;14.52;89.39;101926.13;5051458;28;20036;-62
2021/08/11 03:46:06;;;;;;;24.65;11.18;;;;;;;14.53;89.35;101925.19;5051038;28;20478;-61
2021/08/11 03:48:31;;;;;;;24.40;11.23;;;;;;;14.52;89.42;101919.94;5050476;28;20466;-61
2021/08/11 03:50:57;;;;;;;25.60;11.57;;;;;;;14.53;89.47;101927.00;5052064;28;20467;-61
2021/08/11 03:53:22;;;;;;;22.17;11.05;;;;;;;14.52;89.52;101923.44;5052008;28;20036;-62
2021/08/11 03:55:47;;;;;;;21.85;11.40;;;;;;;14.55;89.36;101930.44;5051280;28;20090;-61
2021/08/11 03:58:13;;;;;;;25.05;12.15;;;;;;;14.54;89.78;101929.59;5051358;28;20039;-61
2021/08/11 04:06:35;;;;;;;22.90;11.98;;;;;;;14.53;89.69;101921.66;5028984;28;20112;-63
2021/08/11 04:09:00;;;;;;;30.27;13.40;;;;;;;14.52;89.76;101923.44;5030900;28;20447;-62
2021/08/11 04:11:25;;;;;;;22.77;11.35;;;;;;;14.54;89.75;101926.94;5030504;28;20028;-61
2021/08/11 04:13:51;;;;;;;25.55;12.57;;;;;;;14.53;89.68;101921.66;5031172;28;20449;-63
2021/08/11 04:16:16;;;;;;;26.63;13.18;;;;;;;14.54;89.82;101939.38;5031241;28;20037;-63
2021/08/11 04:18:41;;;;;;;27.65;13.73;;;;;;;14.54;89.86;101934.91;5032137;28;20032;-63
2021/08/11 04:21:07;;;;;;;26.20;13.20;;;;;;;14.55;89.90;101927.78;5030586;28;20156;-62
2021/08/11 04:23:32;;;;;;;24.88;12.65;;;;;;;14.56;89.79;101930.38;5016561;28;20025;-62
2021/08/11 04:25:58;;;;;;;25.50;12.60;;;;;;;14.58;89.96;101935.66;5016832;28;20076;-62
2021/08/11 04:28:25;;;;;;;24.92;13.43;;;;;;;14.58;89.77;101933.84;5011623;28;20097;-63
2021/08/11 04:30:50;;;;;;;24.23;12.98;;;;;;;14.59;89.67;101929.38;5011203;28;20029;-64
2021/08/11 04:33:15;;;;;;;26.20;13.50;;;;;;;14.56;89.89;101929.53;5018313;28;20026;-63
2021/08/11 04:35:41;;;;;;;27.52;13.27;;;;;;;14.54;89.96;101929.59;5031013;28;20037;-64
2021/08/11 04:38:07;;;;;;;27.52;13.73;;;;;;;14.59;89.85;101934.69;5031581;28;20022;-63
2021/08/11 04:40:39;;;;;;;31.17;14.23;;;;;;;14.59;89.97;101934.69;5012718;28;20040;-63
2021/08/11 04:43:05;;;;;;;29.27;14.43;;;;;;;14.64;89.84;101931.84;5030227;28;20029;-62
2021/08/11 04:45:31;;;;;;;28.45;13.18;;;;;;;14.66;89.71;101932.69;5031487;28;20072;-63
2021/08/11 04:47:57;;;;;;;32.33;14.50;;;;;;;14.66;89.67;101936.19;5030711;28;20121;-62
2021/08/11 04:50:22;;;;;;;25.85;14.00;;;;;;;14.68;89.51;101933.47;5030858;28;20018;-63
2021/08/11 04:52:47;;;;;;;34.70;14.75;;;;;;;14.71;89.27;101925.34;5020685;28;20391;-60
2021/08/11 04:55:13;;;;;;;30.27;13.75;;;;;;;14.75;89.28;101927.78;5015279;28;20037;-62
2021/08/11 04:57:38;;;;;;;25.17;12.27;;;;;;;14.79;89.07;101931.19;5012665;28;20026;-62
2021/08/11 05:00:04;;;;;;;32.53;14.38;;;;;;;14.83;89.06;101934.59;5011719;28;20034;-62
2021/08/11 05:02:30;;;;;;;24.48;12.55;;;;;;;14.88;89.02;101933.44;5016737;28;20084;-62
2021/08/11 05:04:55;;;;;;;28.27;14.15;;;;;;;14.94;88.71;101931.44;5023495;28;20049;-63
2021/08/11 05:07:20;;;;;;;24.17;12.50;;;;;;;15.04;88.44;101935.41;5026883;28;20042;-63
2021/08/11 05:09:46;;;;;;;25.63;13.20;;;;;;;15.14;88.42;101943.84;5024031;28;20033;-63
2021/08/11 05:12:11;;;;;;;25.40;13.07;;;;;;;15.23;87.75;101940.75;5031023;28;20483;-63
2021/08/11 05:14:36;;;;;;;25.40;12.98;;;;;;;15.31;87.61;101949.25;5031652;28;20040;-63
2021/08/11 05:17:02;;;;;;;21.20;12.57;;;;;;;15.39;86.82;101944.41;5034908;28;20148;-62
2021/08/11 05:19:27;;;;;;;23.67;12.25;;;;;;;15.52;85.71;101943.84;5032960;28;20041;-62
2021/08/11 05:21:53;;;;;;;19.48;11.70;;;;;;;15.60;85.70;101946.13;5031702;28;20034;-62
2021/08/11 05:24:18;;;;;;;21.70;11.75;;;;;;;15.62;85.64;101946.94;5029244;28;20041;-61
2021/08/11 05:26:45;;;;;;;30.52;15.70;;;;;;;15.63;85.47;101941.50;5033223;28;20017;-64
2021/08/11 05:29:13;;;;;;;23.77;11.80;;;;;;;15.67;84.63;101950.25;5026968;28;20033;-63
2021/08/11 05:31:38;;;;;;;22.00;11.85;;;;;;;15.67;84.56;101948.44;4999697;28;20347;-62
2021/08/11 05:34:04;;;;;;;22.05;11.18;;;;;;;15.64;84.70;101955.72;5027613;28;20026;-62
2021/08/11 05:36:29;;;;;;;19.85;11.80;;;;;;;15.62;84.73;101953.13;5027727;28;20124;-62
2021/08/11 05:38:54;;;;;;;23.08;12.15;;;;;;;15.63;84.72;101959.34;5030466;28;20026;-62
2021/08/11 05:41:19;;;;;;;24.85;12.15;;;;;;;15.64;84.63;101971.72;5035021;28;20033;-63
2021/08/11 05:43:45;;;;;;;22.83;12.68;;;;;;;15.64;84.63;101977.97;5029304;28;20045;-64
2021/08/11 05:46:10;;;;;;;23.35;12.13;;;;;;;15.64;84.79;101969.94;5024825;28;20021;-62
2021/08/11 05:48:35;;;;;;;22.17;12.48;;;;;;;15.71;84.85;101979.38;5032007;28;20017;-63
2021/08/11 05:51:01;;;;;;;22.27;13.07;;;;;;;15.80;84.37;101971.88;5033414;28;20379;-64
2021/08/11 05:53:26;;;;;;;30.15;13.57;;;;;;;15.92;84.10;101978.44;5031883;28;20120;-60
2021/08/11 05:55:51;;;;;;;26.15;12.75;;;;;;;15.98;83.77;101975.47;5032367;28;20030;-62
2021/08/11 05:58:17;;;;;;;37.90;16.42;;;;;;;16.08;83.92;101982.09;5009458;28;20041;-62
2021/08/11 06:00:43;;;;;;;28.08;13.75;;;;;;;16.15;83.66;101977.28;5034423;28;20162;-62
2021/08/11 06:03:08;;;;;;;23.95;11.68;;;;;;;16.18;83.28;101979.84;5051366;28;20082;-62
2021/08/11 06:05:37;;;;;;;22.02;12.73;;;;;;;16.24;82.72;101982.19;5020838;28;20041;-64
2021/08/11 06:08:02;;;;;;;20.92;11.98;;;;;;;16.27;82.99;101986.53;5019089;28;20041;-62
2021/08/11 06:10:28;;;;;;;25.48;11.75;;;;;;;16.27;82.40;101987.38;5012264;28;20052;-61
2021/08/11 06:12:53;;;;;;;25.63;12.50;;;;;;;16.27;82.58;101995.41;5011491;28;20140;-61
2021/08/11 06:15:20;;;;;;;27.95;13.20;;;;;;;16.29;83.11;101989.97;5013472;28;20029;-64
2021/08/11 06:17:47;;;;;;;62.60;22.38;;;;;;;16.29;82.45;101984.63;5013832;28;20042;-63
2021/08/11 06:20:14;;;;;;;31.52;14.02;;;;;;;16.32;82.70;101989.81;5011998;28;20010;-63
2021/08/11 06:22:40;;;;;;;24.50;12.75;;;;;;;16.33;82.85;101992.41;5021461;28;20036;-62
2021/08/11 06:25:06;;;;;;;23.40;12.32;;;;;;;16.31;83.09;101990.75;5049453;28;20055;-63
2021/08/11 06:27:32;;;;;;;24.63;13.50;;;;;;;16.36;83.21;101999.41;5048755;28;20021;-63
2021/08/11 06:29:57;;;;;;;24.65;12.90;;;;;;;16.46;83.13;101998.00;5032335;28;20336;-63
2021/08/11 06:32:23;;;;;;;24.60;13.57;;;;;;;16.53;82.06;101999.44;5032154;28;20029;-63
2021/08/11 06:34:48;;;;;;;28.33;13.38;;;;;;;16.55;82.33;101999.34;5031673;28;20038;-63
2021/08/11 06:37:13;;;;;;;30.00;13.82;;;;;;;16.73;82.47;102004.66;5030593;28;20332;-63
2021/08/11 06:39:39;;;;;;;26.10;13.10;;;;;;;16.84;81.94;101995.16;5031092;28;20069;-63
2021/08/11 06:42:04;;;;;;;24.65;13.60;;;;;;;16.94;81.41;101994.69;5029712;28;20183;-63
2021/08/11 06:44:29;;;;;;;32.42;14.82;;;;;;;17.01;81.55;101996.94;5028306;28;20029;-63
2021/08/11 06:46:55;;;;;;;56.08;16.70;;;;;;;17.11;82.28;101996.44;5030359;28;20025;-62
2021/08/11 06:49:20;;;;;;;25.65;13.55;;;;;;;17.30;80.29;101996.31;5029985;28;20048;-62
2021/08/11 06:51:45;;;;;;;28.73;13.60;;;;;;;17.35;80.17;101995.13;5029950;28;20021;-63
2021/08/11 06:54:12;;;;;;;29.20;13.73;;;;;;;17.35;80.88;102000.47;5030224;28;20040;-62
2021/08/11 06:56:39;;;;;;;25.83;13.93;;;;;;;17.47;79.36;102000.75;5017771;28;20410;-63
2021/08/11 06:59:05;;;;;;;27.52;14.10;;;;;;;17.56;80.14;101999.34;5029711;28;20033;-63
2021/08/11 07:01:30;;;;;;;23.60;12.50;;;;;;;17.72;79.27;102005.56;5029595;28;20355;-65
2021/08/11 07:03:56;;;;;;;23.65;13.52;;;;;;;17.80;79.27;102015.84;5011130;28;20086;-62
2021/08/11 07:06:21;;;;;;;25.15;13.15;;;;;;;17.94;77.80;102007.94;5029815;28;20112;-63
2021/08/11 07:08:46;;;;;;;24.83;13.48;;;;;;;17.96;78.36;102010.53;5027409;28;20526;-62
2021/08/11 07:11:12;;;;;;;24.55;14.20;;;;;;;18.00;77.84;102001.34;5029572;28;20339;-63
2021/08/11 07:13:37;;;;;;;28.63;14.80;;;;;;;17.94;77.33;102001.69;5026499;28;20399;-62
2021/08/11 07:16:02;;;;;;;26.25;14.35;;;;;;;18.05;77.15;102004.63;5024060;28;20045;-64
2021/08/11 07:18:28;;;;;;;25.38;14.32;;;;;;;18.04;77.48;102002.03;5024513;28;20060;-64
2021/08/11 07:20:53;;;;;;;22.60;12.88;;;;;;;18.09;76.87;102000.81;5013123;28;20030;-63
2021/08/11 07:23:19;;;;;;;28.48;13.65;;;;;;;18.07;76.88;102007.22;5025160;28;20111;-63
2021/08/11 07:25:44;;;;;;;23.90;12.50;;;;;;;18.12;76.89;102008.69;5027146;28;20420;-63
2021/08/11 07:28:09;;;;;;;25.20;13.23;;;;;;;18.02;76.82;102008.34;5021454;28;20096;-63
2021/08/11 07:30:35;;;;;;;24.85;14.27;;;;;;;18.11;77.39;102004.28;5022489;28;20390;-63
2021/08/11 07:33:02;;;;;;;24.42;12.77;;;;;;;18.14;76.81;102004.09;5026599;28;20040;-63
2021/08/11 07:35:28;;;;;;;27.77;13.48;;;;;;;18.31;76.57;102010.28;5018474;28;20313;-62
2021/08/11 07:37:55;;;;;;;24.88;12.75;;;;;;;18.40;75.91;102011.56;5021769;28;20032;-64
2021/08/11 07:40:23;;;;;;;30.50;14.10;;;;;;;18.58;74.48;102009.59;5023749;28;20031;-62
2021/08/11 07:42:50;;;;;;;24.98;11.90;;;;;;;18.79;74.06;102010.97;5026254;28;20099;-63
2021/08/11 07:45:16;;;;;;;20.88;11.50;;;;;;;18.98;73.16;102008.06;5024086;28;20101;-63
2021/08/11 07:47:46;;;;;;;25.83;12.57;;;;;;;19.02;72.94;102007.88;5039975;28;20035;-62
2021/08/11 07:50:12;;;;;;;20.35;10.57;;;;;;;18.94;73.41;102019.94;5049328;28;20032;-61
2021/08/11 07:52:38;;;;;;;26.20;11.65;;;;;;;18.96;72.89;102020.72;5027499;28;20047;-63
2021/08/11 07:55:04;;;;;;;24.58;11.10;;;;;;;19.02;73.68;102015.94;5027515;28;20029;-63
2021/08/11 07:57:29;;;;;;;21.20;10.55;;;;;;;19.11;72.64;102015.34;5026926;28;20099;-63
2021/08/11 07:59:54;;;;;;;25.25;11.57;;;;;;;19.21;73.12;102019.19;5022194;28;20114;-62
2021/08/11 08:02:20;;;;;;;20.23;10.27;;;;;;;19.47;71.26;102008.59;5024073;28;20137;-62
2021/08/11 08:04:45;;;;;;;22.45;10.88;;;;;;;19.60;71.49;102014.06;5024290;28;20033;-63
2021/08/11 08:07:10;;;;;;;24.25;10.25;;;;;;;19.53;70.77;102007.34;5022923;28;20514;-63
2021/08/11 08:09:35;;;;;;;17.98;10.27;;;;;;;19.65;71.07;102009.25;5028602;28;20109;-64
2021/08/11 08:12:01;;;;;;;22.92;11.05;;;;;;;19.62;70.78;102022.88;5026891;28;20074;-63
2021/08/11 08:14:26;;;;;;;23.83;11.13;;;;;;;19.59;71.41;102023.06;5022994;28;20018;-62
2021/08/11 08:16:52;;;;;;;23.77;11.15;;;;;;;19.56;71.02;102026.81;5013776;28;20386;-62
2021/08/11 08:19:17;;;;;;;23.33;11.20;;;;;;;19.41;71.67;102020.63;5022662;28;20081;-63
2021/08/11 08:21:43;;;;;;;23.38;11.18;;;;;;;19.44;70.82;102024.94;5017172;28;20050;-63
2021/08/11 08:24:08;;;;;;;19.70;11.15;;;;;;;19.47;71.33;102032.78;5010171;28;20045;-64
2021/08/11 08:26:34;;;;;;;20.40;11.43;;;;;;;19.53;69.30;102024.34;5022738;28;20021;-63
2021/08/11 08:28:59;;;;;;;25.02;11.35;;;;;;;19.59;69.38;102021.25;5025003;28;20026;-63
2021/08/11 08:31:24;;;;;;;20.80;11.13;;;;;;;19.65;68.79;102023.56;5028428;28;20033;-63
2021/08/11 08:33:50;;;;;;;21.02;10.60;;;;;;;19.70;68.81;102025.09;5016888;28;20054;-65
2021/08/11 08:36:15;;;;;;;20.45;10.57;;;;;;;19.74;68.68;102024.75;5013826;28;20115;-64
2021/08/11 08:38:41;;;;;;;20.48;10.48;;;;;;;19.91;68.29;102025.53;5015214;28;20025;-62
2021/08/11 08:41:06;;;;;;;20.75;11.02;;;;;;;20.02;68.00;102025.69;5024308;28;20037;-62
2021/08/11 08:43:32;;;;;;;21.50;10.55;;;;;;;19.98;68.12;102021.47;5024475;28;20029;-63
2021/08/11 08:46:01;;;;;;;16.73;10.30;;;;;;;19.85;68.62;102023.22;5014701;28;20034;-61
2021/08/11 08:48:26;;;;;;;19.70;11.43;;;;;;;19.87;67.85;102019.47;5016426;28;20018;-61
2021/08/11 08:50:52;;;;;;;18.42;10.23;;;;;;;20.04;68.50;102026.44;5020982;28;20053;-62
2021/08/11 08:53:22;;;;;;;17.85;10.07;;;;;;;20.36;66.95;102020.75;5019636;28;20026;-62
2021/08/11 08:55:49;;;;;;;14.02;8.82;;;;;;;20.63;66.16;102017.13;5013361;28;20141;-61
2021/08/11 08:58:14;;;;;;;19.65;9.68;;;;;;;20.84;65.85;102013.94;5025295;28;20085;-62
2021/08/11 09:00:40;;;;;;;15.38;9.55;;;;;;;21.53;63.80;102021.63;5015301;28;20088;-62
2021/08/11 09:03:06;;;;;;;18.67;9.80;;;;;;;22.74;58.48;102017.06;5019525;28;20429;-62
2021/08/11 09:05:31;;;;;;;15.23;8.68;;;;;;;23.92;53.23;102028.53;4989502;28;20125;-63
2021/08/11 09:07:57;;;;;;;14.27;7.30;;;;;;;25.01;50.76;102021.94;5008379;28;20041;-59
2021/08/11 09:10:25;;;;;;;11.13;6.88;;;;;;;25.47;47.72;102025.13;5019677;28;20033;-64
2021/08/11 09:12:54;;;;;;;10.23;6.75;;;;;;;26.08;46.39;102039.56;5011255;28;20470;-61
2021/08/11 09:16:03;;;;;;;43.30;16.13;;;;;;;26.62;45.18;102034.53;5010076;28;20472;-62
2021/08/11 09:18:28;;;;;;;15.60;7.25;;;;;;;26.94;44.48;102029.75;5015528;28;20070;-64
2021/08/11 09:21:02;;;;;;;13.15;6.50;;;;;;;27.23;44.85;102021.50;5007829;28;20123;-63
2021/08/11 09:23:42;;;;;;;13.35;6.82;;;;;;;27.64;43.05;102032.91;5018911;28;20387;-63
2021/08/11 09:26:13;;;;;;;12.75;6.60;;;;;;;27.86;42.70;102036.19;5025671;28;20037;-63
2021/08/11 09:28:40;;;;;;;;;;;;;;;27.68;42.70;102041.63;5008148;28;20206;-64
2021/08/11 09:31:24;;;;;;;11.45;6.50;;;;;;;27.21;43.80;102033.53;5020188;28;19960;-63
2021/08/11 09:33:51;;;;;;;14.77;7.00;;;;;;;26.57;44.83;102041.41;5016905;28;20419;-63
2021/08/11 09:36:16;;;;;;;16.30;7.13;;;;;;;25.64;47.49;102039.03;5008887;28;20368;-63
2021/08/11 09:39:04;;;;;;;16.33;7.00;;;;;;;24.79;48.80;102025.66;5008543;28;20049;-64
2021/08/11 09:41:31;;;;;;;16.60;6.45;;;;;;;24.56;50.83;102026.78;5016686;28;20168;-62
2021/08/11 09:44:09;;;;;;;9.55;5.30;;;;;;;25.34;48.06;102025.34;5019124;28;20033;-62
2021/08/11 09:46:35;;;;;;;10.02;5.78;;;;;;;25.76;46.93;102031.66;5008157;28;20030;-61
2021/08/11 09:49:01;;;;;;;14.02;5.90;;;;;;;25.48;46.68;102026.84;5021507;28;20021;-62
2021/08/11 09:51:26;;;;;;;12.70;6.30;;;;;;;25.46;47.80;102036.13;5036606;28;20419;-60
2021/08/11 09:53:52;;;;;;;13.57;6.28;;;;;;;26.03;46.86;102036.38;5020734;28;20034;-63
2021/08/11 09:56:17;;;;;;;11.85;5.63;;;;;;;26.79;43.15;102030.25;5029171;28;20033;-62
2021/08/11 09:59:02;;;;;;;11.20;5.43;;;;;;;27.21;43.17;102036.25;5028809;28;20026;-63
2021/08/11 10:01:28;;;;;;;9.98;5.30;;;;;;;27.50;41.77;102046.19;5025234;28;20041;-62
2021/08/11 10:03:59;;;;;;;13.60;5.20;;;;;;;27.75;42.35;102042.72;5012931;28;20033;-62
2021/08/11 10:06:32;;;;;;;16.83;5.30;;;;;;;28.14;41.42;102038.91;5023242;28;20062;-62
2021/08/11 10:09:21;;;;;;;12.20;6.07;;;;;;;27.56;42.39;102042.81;5019609;28;20033;-62
2021/08/11 10:11:56;;;;;;;8.55;4.32;;;;;;;28.47;40.94;102050.06;5023276;28;20128;-63
2021/08/11 10:14:35;;;;;;;11.00;4.50;;;;;;;28.44;40.45;102045.81;5030499;28;20034;-61
2021/08/11 10:17:01;;;;;;;9.68;4.97;;;;;;;28.12;39.98;102054.53;5015732;28;20045;-62
2021/08/11 10:19:29;;;;;;;11.48;4.63;;;;;;;28.08;40.45;102054.00;5019631;28;20032;-60
2021/08/11 10:22:00;;;;;;;11.52;4.85;;;;;;;27.82;39.88;102053.00;5017680;28;20127;-62
2021/08/11 10:24:27;;;;;;;9.77;4.97;;;;;;;27.36;41.79;102063.81;5016071;28;20080;-61
2021/08/11 10:26:54;;;;;;;10.68;4.75;;;;;;;27.85;41.04;102060.84;5011459;28;20069;-63
2021/08/11 10:29:20;;;;;;;10.10;5.40;;;;;;;27.54;40.25;102056.59;5012834;28;20100;-61
2021/08/11 10:31:46;;;;;;;8.07;4.30;;;;;;;27.59;40.35;102058.88;5019761;28;20507;-61
2021/08/11 10:34:13;;;;;;;8.73;4.20;;;;;;;28.14;40.65;102057.13;5017859;28;20535;-62
2021/08/11 10:36:42;;;;;;;10.07;4.72;;;;;;;28.33;42.87;102050.66;5014464;28;20064;-62
2021/08/11 10:39:08;;;;;;;10.98;4.97;;;;;;;28.21;41.25;102050.00;5025684;28;20109;-62
2021/08/11 10:41:35;;;;;;;8.13;4.00;;;;;;;28.70;41.19;102050.44;5018588;28;20391;-62
2021/08/11 10:44:02;;;;;;;10.07;4.22;;;;;;;29.49;37.20;102044.06;5029801;28;20044;-63
2021/08/11 10:46:43;;;;;;;8.23;4.03;;;;;;;29.96;36.16;102050.91;5031546;28;20037;-62
2021/08/11 10:49:10;;;;;;;;;;;;;;;29.81;36.18;102046.06;5012949;28;20033;-63
2021/08/11 10:51:46;;;;;;;7.90;4.30;;;;;;;29.88;35.70;102051.75;5027504;28;20338;-63
2021/08/11 10:54:12;;;;;;;10.13;4.60;;;;;;;30.22;36.07;102053.50;5026410;28;20044;-63
2021/08/11 10:56:49;;;;;;;11.18;4.65;;;;;;;30.41;36.34;102052.28;5010860;28;20048;-63
2021/08/11 10:59:28;;;;;;;7.80;4.15;;;;;;;30.06;35.27;102062.53;5012032;28;20030;-62
2021/08/11 11:01:56;;;;;;;10.27;4.55;;;;;;;29.62;37.20;102062.72;5012771;28;20498;-63
2021/08/11 11:04:46;;;;;;;9.40;4.40;;;;;;;30.21;36.08;102069.03;5011272;28;20041;-63
2021/08/11 11:07:20;;;;;;;10.38;4.28;;;;;;;30.40;35.67;102065.09;5009253;28;20326;-63
2021/08/11 11:09:47;;;;;;;9.35;4.53;;;;;;;29.08;36.84;102072.84;5009966;28;20044;-64
2021/08/11 11:12:16;;;;;;;10.90;4.30;;;;;;;28.84;38.60;102068.09;5016096;28;20049;-64
2021/08/11 11:14:45;;;;;;;8.40;4.30;;;;;;;28.69;38.38;102065.09;5029149;28;20163;-63
2021/08/11 11:17:12;;;;;;;7.95;4.50;;;;;;;29.09;37.17;102069.13;5013790;28;20021;-63
2021/08/11 11:20:02;;;;;;;11.00;4.63;;;;;;;29.32;37.76;102073.19;5023667;28;20150;-63
2021/08/11 11:22:35;;;;;;;9.63;4.95;;;;;;;29.54;37.26;102069.88;5026657;28;20109;-63